createdAt,value
2022-11-05T00:00:15.916Z,101614.94
2022-11-05T00:02:42.417Z,101608.97
2022-11-05T00:05:11.495Z,101612.34
2022-11-05T00:07:49.464Z,101609.78
2022-11-05T00:10:22.718Z,101599.47
2022-11-05T00:12:49.320Z,101591.75
2022-11-05T00:15:15.903Z,101597.72
2022-11-05T00:17:42.928Z,101596.91
2022-11-05T00:20:10.750Z,101596.91
2022-11-05T00:22:37.222Z,101594.16
2022-11-05T00:25:03.964Z,101594.09
2022-11-05T00:27:33.149Z,101602.63
2022-11-05T00:29:59.656Z,101603.44
2022-11-05T00:32:26.185Z,101597.28
2022-11-05T00:34:52.624Z,101592.91
2022-11-05T00:37:19.084Z,101602.31
2022-11-05T00:39:45.523Z,101584.75
2022-11-05T00:42:12.024Z,101596.94
2022-11-05T00:44:38.525Z,101597.66
2022-11-05T00:47:04.987Z,101603.44
2022-11-05T00:49:31.437Z,101604.38
2022-11-05T00:51:57.882Z,101603.44
2022-11-05T00:54:24.394Z,101592.88
2022-11-05T00:56:50.904Z,101587.63
2022-11-05T00:59:17.308Z,101591.91
2022-11-05T01:01:43.945Z,101593.56
2022-11-05T01:04:10.614Z,101596.09
2022-11-05T01:06:37.086Z,101594.34
2022-11-05T01:09:03.578Z,101580.53
2022-11-05T01:11:30.070Z,101581.16
2022-11-05T01:13:56.537Z,101572.44
2022-11-05T01:16:24.201Z,101583.56
2022-11-05T01:18:50.699Z,101594.63
2022-11-05T01:21:17.241Z,101595.41
2022-11-05T01:23:43.754Z,101595.50
2022-11-05T01:26:10.494Z,101597.13
2022-11-05T01:28:37.082Z,101581.63
2022-11-05T01:31:03.791Z,101592.88
2022-11-05T01:33:30.282Z,101590.34
2022-11-05T01:35:56.741Z,101574.75
2022-11-05T01:38:23.672Z,101587.03
2022-11-05T01:40:50.279Z,101597.25
2022-11-05T01:43:22.402Z,101593.84
2022-11-05T01:45:57.303Z,101593.84
2022-11-05T01:48:28.346Z,101599.97
2022-11-05T01:51:01.250Z,101597.44
2022-11-05T01:53:38.703Z,101585.41
2022-11-05T01:56:13.578Z,101579.34
2022-11-05T01:58:47.523Z,101583.78
2022-11-05T02:01:14.664Z,101594.25
2022-11-05T02:03:42.822Z,101581.41
2022-11-05T02:06:10.319Z,101584.16
2022-11-05T02:08:46.064Z,101579.09
2022-11-05T02:11:16.533Z,101584.25
2022-11-05T02:13:43.086Z,101576.63
2022-11-05T02:16:29.729Z,101589.72
2022-11-05T02:19:19.093Z,101589.84
2022-11-05T02:22:19.887Z,101591.72
2022-11-05T02:25:43.480Z,101595.28
2022-11-05T02:28:43.417Z,101594.53
2022-11-05T02:31:44.882Z,101588.69
2022-11-05T02:34:23.268Z,101597.22
2022-11-05T02:37:01.918Z,101587.81
2022-11-05T02:39:50.878Z,101594.03
2022-11-05T02:42:26.440Z,101592.44
2022-11-05T02:45:14.841Z,101595.91
2022-11-05T02:47:45.227Z,101591.69
2022-11-05T02:50:35.291Z,101586.56
2022-11-05T02:53:06.117Z,101597.84
2022-11-05T02:55:41.735Z,101597.09
2022-11-05T02:58:09.065Z,101594.63
2022-11-05T03:00:41.012Z,101595.53
2022-11-05T03:03:36.470Z,101593.81
2022-11-05T03:06:21.627Z,101593.06
2022-11-05T03:09:00.048Z,101582.66
2022-11-05T03:11:30.536Z,101580.13
2022-11-05T03:13:59.945Z,101586.41
2022-11-05T03:16:40.468Z,101581.34
2022-11-05T03:19:10.625Z,101572.84
2022-11-05T03:22:11.113Z,101567.69
2022-11-05T03:24:44.821Z,101571.25
2022-11-05T03:27:18.413Z,101572.97
2022-11-05T03:29:51.137Z,101555.75
2022-11-05T03:32:20.398Z,101567.06
2022-11-05T03:34:51.541Z,101554.00
2022-11-05T03:37:23.097Z,101549.84
2022-11-05T03:39:58.536Z,101542.03
2022-11-05T03:42:29.064Z,101538.56
2022-11-05T03:44:59.556Z,101535.16
2022-11-05T03:47:32.537Z,101538.72
2022-11-05T03:50:10.058Z,101535.22
2022-11-05T03:52:45.769Z,101530.00
2022-11-05T03:55:12.675Z,101520.53
2022-11-05T03:57:44.020Z,101521.38
2022-11-05T04:00:11.368Z,101538.72
2022-11-05T04:02:41.643Z,101517.00
2022-11-05T04:05:08.262Z,101529.31
2022-11-05T04:07:34.711Z,101540.50
2022-11-05T04:10:01.240Z,101509.97
2022-11-05T04:12:27.715Z,101542.28
2022-11-05T04:14:54.283Z,101552.59
2022-11-05T04:17:20.734Z,101545.56
2022-11-05T04:19:47.309Z,101538.72
2022-11-05T04:22:13.755Z,101543.13
2022-11-05T04:24:40.288Z,101548.34
2022-11-05T04:27:06.740Z,101541.47
2022-11-05T04:29:33.213Z,101563.13
2022-11-05T04:31:59.686Z,101546.69
2022-11-05T04:34:26.190Z,101544.28
2022-11-05T04:36:53.225Z,101548.72
2022-11-05T04:39:21.286Z,101534.06
2022-11-05T04:41:48.126Z,101539.41
2022-11-05T04:44:15.567Z,101547.94
2022-11-05T04:46:42.316Z,101537.63
2022-11-05T04:49:08.796Z,101543.72
2022-11-05T04:51:35.285Z,101554.94
2022-11-05T04:54:01.714Z,101545.34
2022-11-05T04:56:28.220Z,101554.06
2022-11-05T04:58:54.693Z,101548.00
2022-11-05T05:01:23.416Z,101556.81
2022-11-05T05:03:51.561Z,101555.97
2022-11-05T05:06:18.601Z,101556.88
2022-11-05T05:08:47.073Z,101550.06
2022-11-05T05:11:16.593Z,101532.78
2022-11-05T05:13:43.364Z,101540.75
2022-11-05T05:16:18.209Z,101538.09
2022-11-05T05:18:46.349Z,101534.75
2022-11-05T05:21:13.657Z,101535.66
2022-11-05T05:23:40.110Z,101529.66
2022-11-05T05:26:06.592Z,101521.72
2022-11-05T05:28:33.411Z,101523.53
2022-11-05T05:31:00.655Z,101525.44
2022-11-05T05:33:28.215Z,101522.03
2022-11-05T05:35:57.625Z,101522.03
2022-11-05T05:38:24.733Z,101511.78
2022-11-05T05:40:51.756Z,101503.06
2022-11-05T05:43:18.274Z,101510.91
2022-11-05T05:45:44.783Z,101504.00
2022-11-05T05:48:11.354Z,101496.31
2022-11-05T05:50:37.864Z,101497.28
2022-11-05T05:53:07.816Z,101499.97
2022-11-05T05:55:34.488Z,101507.84
2022-11-05T05:58:00.932Z,101507.84
2022-11-05T06:00:27.432Z,101502.69
2022-11-05T06:02:55.717Z,101494.88
2022-11-05T06:05:22.404Z,101510.63
2022-11-05T06:07:55.933Z,101510.72
2022-11-05T06:10:22.774Z,101504.84
2022-11-05T06:12:49.231Z,101494.44
2022-11-05T06:15:16.089Z,101495.44
2022-11-05T06:17:45.931Z,101489.50
2022-11-05T06:20:13.125Z,101506.81
2022-11-05T06:22:39.671Z,101495.69
2022-11-05T06:25:07.305Z,101493.16
2022-11-05T06:27:34.358Z,101481.88
2022-11-05T06:30:00.843Z,101489.78
2022-11-05T06:32:27.292Z,101487.22
2022-11-05T06:34:53.788Z,101493.31
2022-11-05T06:37:20.257Z,101488.13
2022-11-05T06:39:46.744Z,101488.06
2022-11-05T06:42:20.286Z,101501.16
2022-11-05T06:44:46.789Z,101488.22
2022-11-05T06:47:13.231Z,101491.81
2022-11-05T06:49:39.723Z,101494.34
2022-11-05T06:52:06.292Z,101483.97
2022-11-05T06:54:32.781Z,101497.09
2022-11-05T06:56:59.249Z,101489.31
2022-11-05T06:59:25.762Z,101497.22
2022-11-05T07:01:52.317Z,101495.47
2022-11-05T07:04:18.823Z,101494.72
2022-11-05T07:06:45.252Z,101504.25
2022-11-05T07:09:11.782Z,101499.16
2022-11-05T07:11:38.224Z,101483.59
2022-11-05T07:14:04.750Z,101499.28
2022-11-05T07:16:31.233Z,101477.66
2022-11-05T07:18:57.690Z,101494.19
2022-11-05T07:21:24.236Z,101482.03
2022-11-05T07:23:50.838Z,101476.00
2022-11-05T07:26:17.338Z,101485.66
2022-11-05T07:28:43.825Z,101501.28
2022-11-05T07:31:10.281Z,101489.16
2022-11-05T07:33:36.963Z,101496.97
2022-11-05T07:36:03.711Z,101502.28
2022-11-05T07:38:30.642Z,101495.34
2022-11-05T07:40:59.468Z,101505.81
2022-11-05T07:43:25.977Z,101495.56
2022-11-05T07:45:52.518Z,101508.47
2022-11-05T07:48:19.027Z,101499.84
2022-11-05T07:50:45.587Z,101504.31
2022-11-05T07:53:14.483Z,101503.50
2022-11-05T07:55:42.009Z,101508.66
2022-11-05T07:58:09.700Z,101496.59
2022-11-05T08:00:36.762Z,101484.50
2022-11-05T08:03:08.176Z,101504.53
2022-11-05T08:05:42.514Z,101474.06
2022-11-05T08:08:09.525Z,101497.78
2022-11-05T08:10:37.041Z,101498.69
2022-11-05T08:13:04.881Z,101495.19
2022-11-05T08:15:31.527Z,101494.50
2022-11-05T08:18:02.740Z,101494.53
2022-11-05T08:20:29.393Z,101493.66
2022-11-05T08:22:56.361Z,101479.03
2022-11-05T08:25:23.525Z,101497.25
2022-11-05T08:27:58.633Z,101488.63
2022-11-05T08:30:25.729Z,101495.66
2022-11-05T08:32:57.015Z,101474.13
2022-11-05T08:35:23.739Z,101487.13
2022-11-05T08:37:50.233Z,101487.22
2022-11-05T08:40:16.854Z,101474.28
2022-11-05T08:42:43.366Z,101479.56
2022-11-05T08:45:10.144Z,101477.03
2022-11-05T08:47:36.659Z,101472.81
2022-11-05T08:50:03.316Z,101475.47
2022-11-05T08:52:29.843Z,101484.19
2022-11-05T08:54:56.474Z,101482.53
2022-11-05T08:57:22.993Z,101484.31
2022-11-05T08:59:49.537Z,101474.03
2022-11-05T09:02:16.146Z,101470.56
2022-11-05T09:04:42.698Z,101472.38
2022-11-05T09:07:09.126Z,101467.25
2022-11-05T09:09:35.606Z,101475.13
2022-11-05T09:12:17.407Z,101466.50
2022-11-05T09:14:44.003Z,101470.06
2022-11-05T09:17:21.565Z,101468.41
2022-11-05T09:19:48.516Z,101464.13
2022-11-05T09:22:15.212Z,101460.75
2022-11-05T09:24:43.209Z,101458.25
2022-11-05T09:27:11.327Z,101460.91
2022-11-05T09:29:38.057Z,101431.53
2022-11-05T09:32:07.331Z,101424.69
2022-11-05T09:34:34.806Z,101442.09
2022-11-05T09:37:02.202Z,101441.25
2022-11-05T09:39:29.027Z,101438.69
2022-11-05T09:42:02.121Z,101432.69
2022-11-05T09:44:40.661Z,101420.63
2022-11-05T09:47:13.166Z,101430.16
2022-11-05T09:49:44.276Z,101422.44
2022-11-05T09:52:21.233Z,101422.47
2022-11-05T09:54:47.943Z,101411.25
2022-11-05T09:57:20.996Z,101416.53
2022-11-05T10:00:08.571Z,101419.97
2022-11-05T10:02:42.038Z,101413.97
2022-11-05T10:05:12.161Z,101405.34
2022-11-05T10:07:49.116Z,101408.88
2022-11-05T10:10:24.301Z,101418.41
2022-11-05T10:12:55.068Z,101408.03
2022-11-05T10:15:36.332Z,101415.84
2022-11-05T10:18:12.396Z,101402.91
2022-11-05T10:20:39.348Z,101418.50
2022-11-05T10:23:18.182Z,101409.88
2022-11-05T10:25:55.005Z,101399.53
2022-11-05T10:28:24.305Z,101401.28
2022-11-05T10:30:56.348Z,101380.63
2022-11-05T10:33:48.512Z,101382.38
2022-11-05T10:36:27.705Z,101377.28
2022-11-05T10:39:00.391Z,101371.22
2022-11-05T10:41:53.647Z,101379.91
2022-11-05T10:45:02.233Z,101375.66
2022-11-05T10:47:53.252Z,101386.03
2022-11-05T10:50:24.470Z,101373.13
2022-11-05T10:53:01.176Z,101380.97
2022-11-05T10:55:35.128Z,101363.72
2022-11-05T10:58:16.731Z,101359.41
2022-11-05T11:00:45.591Z,101374.16
2022-11-05T11:03:45.848Z,101363.81
2022-11-05T11:06:33.204Z,101349.13
2022-11-05T11:09:06.367Z,101345.69
2022-11-05T11:11:37.685Z,101351.78
2022-11-05T11:14:19.998Z,101335.34
2022-11-05T11:16:51.446Z,101322.38
2022-11-05T11:19:20.861Z,101322.41
2022-11-05T11:22:07.194Z,101315.47
2022-11-05T11:24:45.399Z,101314.66
2022-11-05T11:27:16.648Z,101317.25
2022-11-05T11:29:49.610Z,101296.53
2022-11-05T11:32:19.260Z,101306.03
2022-11-05T11:34:52.960Z,101300.03
2022-11-05T11:37:28.904Z,101303.50
2022-11-05T11:40:21.992Z,101304.38
2022-11-05T11:42:56.267Z,101298.31
2022-11-05T11:45:33.122Z,101291.38
2022-11-05T11:48:04.501Z,101297.44
2022-11-05T11:50:38.593Z,101300.06
2022-11-05T11:53:20.264Z,101300.09
2022-11-05T11:55:59.000Z,101297.50
2022-11-05T11:58:45.976Z,101290.53
2022-11-05T12:01:37.580Z,101294.88
2022-11-05T12:04:10.056Z,101291.41
2022-11-05T12:07:07.333Z,101281.00
2022-11-05T12:09:49.914Z,101276.66
2022-11-05T12:12:20.888Z,101266.25
2022-11-05T12:15:03.532Z,101252.38
2022-11-05T12:17:44.949Z,101248.03
2022-11-05T12:20:16.782Z,101239.38
2022-11-05T12:22:51.862Z,101238.47
2022-11-05T12:25:25.216Z,101228.09
2022-11-05T12:28:17.046Z,101235.03
2022-11-05T12:30:59.760Z,101233.25
2022-11-05T12:33:38.329Z,101242.81
2022-11-05T12:36:21.200Z,101239.34
2022-11-05T12:39:13.286Z,101243.69
2022-11-05T12:42:15.269Z,101232.41
2022-11-05T12:45:20.886Z,101223.78
2022-11-05T12:48:24.701Z,101222.03
2022-11-05T12:51:08.342Z,101219.44
2022-11-05T12:54:07.351Z,101212.50
2022-11-05T12:56:57.168Z,101194.28
2022-11-05T12:59:39.700Z,101185.59
2022-11-05T13:02:19.483Z,101154.41
2022-11-05T13:04:57.794Z,101161.28
2022-11-05T13:07:30.200Z,101158.69
2022-11-05T13:10:03.187Z,101149.13
2022-11-05T13:12:33.206Z,101130.91
2022-11-05T13:15:05.286Z,101125.69
2022-11-05T13:17:48.985Z,101114.41
2022-11-05T13:20:21.322Z,101108.34
2022-11-05T13:23:06.339Z,101110.03
2022-11-05T13:25:37.619Z,101119.59
2022-11-05T13:28:38.352Z,101137.75
2022-11-05T13:31:09.870Z,101136.97
2022-11-05T13:33:42.239Z,101158.56
2022-11-05T13:36:32.382Z,101160.31
2022-11-05T13:39:17.834Z,101163.81
2022-11-05T13:42:11.945Z,101156.88
2022-11-05T13:44:50.655Z,101162.97
2022-11-05T13:47:35.982Z,101145.63
2022-11-05T13:50:30.430Z,101139.56
2022-11-05T13:53:38.614Z,101134.38
2022-11-05T13:56:05.096Z,101124.84
2022-11-05T13:58:49.803Z,101091.06
2022-11-05T14:01:35.012Z,101118.81
2022-11-05T14:04:02.976Z,101111.88
2022-11-05T14:06:36.144Z,101096.28
2022-11-05T14:09:08.630Z,101085.88
2022-11-05T14:11:38.293Z,101091.94
2022-11-05T14:14:08.704Z,101095.41
2022-11-05T14:17:14.848Z,101104.94
2022-11-05T14:20:23.514Z,101104.09
2022-11-05T14:22:50.204Z,101105.81
2022-11-05T14:25:39.658Z,101110.16
2022-11-05T14:28:35.210Z,101094.53
2022-11-05T14:34:43.039Z,101082.38
2022-11-05T14:37:12.660Z,101083.25
2022-11-05T14:39:40.865Z,101071.09
2022-11-05T14:42:14.837Z,101065.91
2022-11-05T14:44:56.649Z,101063.31
2022-11-05T14:47:26.091Z,101052.91
2022-11-05T14:49:58.603Z,101044.22
2022-11-05T14:52:25.146Z,101042.50
2022-11-05T14:54:54.946Z,101043.31
2022-11-05T14:57:43.190Z,101045.06
2022-11-05T15:00:28.470Z,101044.19
2022-11-05T15:03:00.813Z,101042.44
2022-11-05T15:05:48.607Z,101043.31
2022-11-05T15:08:47.487Z,101038.13
2022-11-05T15:11:21.687Z,101032.88
2022-11-05T15:13:54.259Z,101031.13
2022-11-05T15:16:36.697Z,101028.53
2022-11-05T15:19:05.050Z,101030.28
2022-11-05T15:21:35.903Z,101023.38
2022-11-05T15:24:03.873Z,101029.41
2022-11-05T15:26:47.376Z,101002.56
2022-11-05T15:29:20.395Z,101008.59
2022-11-05T15:31:47.391Z,101010.28
2022-11-05T15:34:16.843Z,101010.28
2022-11-05T15:36:55.396Z,101001.59
2022-11-05T15:39:38.580Z,101005.06
2022-11-05T15:42:11.983Z,100994.66
2022-11-05T15:44:41.044Z,100998.09
2022-11-05T15:47:11.111Z,100988.56
2022-11-05T15:49:38.025Z,100987.72
2022-11-05T15:52:04.714Z,100981.66
2022-11-05T15:54:31.761Z,100980.78
2022-11-05T15:56:59.652Z,100979.13
2022-11-05T15:59:29.300Z,100979.97
2022-11-05T16:02:20.538Z,100982.59
2022-11-05T16:04:48.296Z,100986.06
2022-11-05T16:07:15.965Z,100963.59
2022-11-05T16:09:51.962Z,100983.50
2022-11-05T16:12:18.476Z,100987.84
2022-11-05T16:14:58.377Z,100988.75
2022-11-05T16:17:27.966Z,100969.72
2022-11-05T16:19:54.828Z,100985.31
2022-11-05T16:22:22.106Z,100977.56
2022-11-05T16:24:49.339Z,100983.59
2022-11-05T16:27:21.898Z,100974.06
2022-11-05T16:29:51.627Z,100979.25
2022-11-05T16:32:26.915Z,100972.31
2022-11-05T16:35:03.203Z,100967.22
2022-11-05T16:37:36.450Z,100966.34
2022-11-05T16:40:09.634Z,100954.22
2022-11-05T16:42:38.871Z,100971.50
2022-11-05T16:45:07.149Z,100964.56
2022-11-05T16:47:33.858Z,100975.81
2022-11-05T16:50:00.480Z,100966.31
2022-11-05T16:52:29.907Z,100949.88
2022-11-05T16:54:56.402Z,100968.91
2022-11-05T16:57:29.078Z,100965.38
2022-11-05T16:59:56.156Z,100958.50
2022-11-05T17:02:23.125Z,100961.97
2022-11-05T17:04:49.972Z,100946.41
2022-11-05T17:07:16.582Z,100937.75
2022-11-05T17:09:43.196Z,100962.78
2022-11-05T17:12:11.522Z,100960.19
2022-11-05T17:14:38.440Z,100958.50
2022-11-05T17:17:05.574Z,100957.59
2022-11-05T17:19:32.230Z,100963.66
2022-11-05T17:21:58.815Z,100964.50
2022-11-05T17:24:25.324Z,100970.59
2022-11-05T17:26:51.854Z,100964.53
2022-11-05T17:29:18.324Z,100972.31
2022-11-05T17:31:44.795Z,100973.19
2022-11-05T17:34:11.355Z,100980.94
2022-11-05T17:36:37.843Z,100967.97
2022-11-05T17:39:04.307Z,100969.69
2022-11-05T17:41:30.829Z,100964.47
2022-11-05T17:43:57.726Z,100967.94
2022-11-05T17:46:24.577Z,100973.13
2022-11-05T17:48:51.069Z,100968.81
2022-11-05T17:51:19.311Z,100973.09
2022-11-05T17:53:47.033Z,100975.69
2022-11-05T17:56:24.572Z,100977.44
2022-11-05T17:58:55.904Z,100961.81
2022-11-05T18:01:34.320Z,100967.88
2022-11-05T18:04:07.157Z,100959.22
2022-11-05T18:06:36.599Z,100962.69
2022-11-05T18:09:04.621Z,100966.97
2022-11-05T18:11:32.208Z,100969.53
2022-11-05T18:13:58.774Z,100956.63
2022-11-05T18:16:25.364Z,100968.66
2022-11-05T18:18:51.938Z,100961.72
2022-11-05T18:21:18.644Z,100962.59
2022-11-05T18:23:45.292Z,100958.25
2022-11-05T18:26:14.033Z,100951.25
2022-11-05T18:28:40.895Z,100950.44
2022-11-05T18:31:19.024Z,100949.53
2022-11-05T18:33:45.946Z,100947.75
2022-11-05T18:36:20.156Z,100955.53
2022-11-05T18:38:47.947Z,100946.88
2022-11-05T18:41:15.100Z,100945.13
2022-11-05T18:43:41.627Z,100949.47
2022-11-05T18:46:08.162Z,100950.28
2022-11-05T18:48:35.303Z,100945.94
2022-11-05T18:51:15.658Z,100937.31
2022-11-05T18:53:42.473Z,100945.94
2022-11-05T18:56:15.254Z,100942.44
2022-11-05T18:58:41.908Z,100960.63
2022-11-05T19:01:16.935Z,100958.03
2022-11-05T19:03:44.035Z,100949.34
2022-11-05T19:06:11.180Z,100959.72
2022-11-05T19:08:37.775Z,100956.22
2022-11-05T19:11:14.170Z,100952.75
2022-11-05T19:13:40.837Z,100950.16
2022-11-05T19:16:14.123Z,100954.44
2022-11-05T19:18:41.449Z,100934.53
2022-11-05T19:21:09.724Z,100947.50
2022-11-05T19:23:36.473Z,100934.50
2022-11-05T19:26:07.299Z,100939.69
2022-11-05T19:28:34.411Z,100938.75
2022-11-05T19:31:01.075Z,100931.88
2022-11-05T19:33:28.034Z,100943.97
2022-11-05T19:35:55.174Z,100952.63
2022-11-05T19:38:22.724Z,100945.69
2022-11-05T19:40:49.861Z,100945.72
2022-11-05T19:43:16.402Z,100943.09
2022-11-05T19:45:45.243Z,100943.09
2022-11-05T19:48:17.846Z,100938.75
2022-11-05T19:50:45.873Z,100941.34
2022-11-05T19:53:12.504Z,100943.94
2022-11-05T19:55:40.691Z,100942.13
2022-11-05T19:58:08.192Z,100936.13
2022-11-05T20:00:34.717Z,100943.84
2022-11-05T20:03:01.480Z,100930.00
2022-11-05T20:05:28.072Z,100929.09
2022-11-05T20:07:55.360Z,100940.34
2022-11-05T20:10:21.860Z,100924.78
2022-11-05T20:12:48.336Z,100931.72
2022-11-05T20:15:14.960Z,100929.94
2022-11-05T20:17:41.450Z,100918.69
2022-11-05T20:20:08.444Z,100920.44
2022-11-05T20:22:34.929Z,100912.56
2022-11-05T20:25:01.400Z,100922.97
2022-11-05T20:27:28.870Z,100921.22
2022-11-05T20:29:55.429Z,100924.66
2022-11-05T20:32:21.892Z,100916.00
2022-11-05T20:34:48.401Z,100912.56
2022-11-05T20:37:15.007Z,100920.28
2022-11-05T20:39:41.491Z,100916.81
2022-11-05T20:42:07.951Z,100928.91
2022-11-05T20:44:34.425Z,100922.91
2022-11-05T20:47:00.935Z,100914.22
2022-11-05T20:49:27.428Z,100933.25
2022-11-05T20:51:54.653Z,100916.84
2022-11-05T20:54:21.200Z,100923.78
2022-11-05T20:56:47.724Z,100922.00
2022-11-05T20:59:14.263Z,100929.84
2022-11-05T21:01:40.895Z,100929.00
2022-11-05T21:04:07.558Z,100923.84
2022-11-05T21:06:34.173Z,100912.56
2022-11-05T21:09:00.945Z,100925.56
2022-11-05T21:11:28.021Z,100922.09
2022-11-05T21:13:54.598Z,100917.81
2022-11-05T21:16:21.593Z,100923.81
2022-11-05T21:18:48.133Z,100931.63
2022-11-05T21:21:19.565Z,100917.81
2022-11-05T21:23:46.011Z,100930.72
2022-11-05T21:26:14.223Z,100927.25
2022-11-05T21:28:41.759Z,100920.34
2022-11-05T21:31:09.051Z,100929.91
2022-11-05T21:33:35.761Z,100928.19
2022-11-05T21:36:15.556Z,100932.53
2022-11-05T21:38:42.280Z,100917.84
2022-11-05T21:41:11.164Z,100921.25
2022-11-05T21:43:38.744Z,100925.59
2022-11-05T21:46:05.301Z,100926.50
2022-11-05T21:48:32.288Z,100910.94
2022-11-05T21:50:58.925Z,100930.84
2022-11-05T21:53:25.945Z,100933.50
2022-11-05T21:55:52.428Z,100937.78
2022-11-05T21:58:19.235Z,100939.53
2022-11-05T22:00:45.657Z,100945.59
2022-11-05T22:03:12.151Z,100942.19
2022-11-05T22:05:38.659Z,100943.94
2022-11-05T22:08:05.317Z,100931.75
2022-11-05T22:10:31.836Z,100936.09
2022-11-05T22:12:58.316Z,100927.44
2022-11-05T22:15:24.792Z,100923.97
2022-11-05T22:17:51.325Z,100923.09
2022-11-05T22:20:17.819Z,100933.50
2022-11-05T22:22:45.053Z,100917.91
2022-11-05T22:25:12.004Z,100915.31
2022-11-05T22:27:38.485Z,100922.22
2022-11-05T22:30:05.464Z,100927.44
2022-11-05T22:32:32.017Z,100923.97
2022-11-05T22:34:58.647Z,100916.16
2022-11-05T22:37:25.086Z,100915.25
2022-11-05T22:39:51.579Z,100910.91
2022-11-05T22:42:18.147Z,100925.66
2022-11-05T22:44:44.668Z,100919.63
2022-11-05T22:47:11.232Z,100909.22
2022-11-05T22:49:37.863Z,100923.91
2022-11-05T22:52:04.634Z,100913.50
2022-11-05T22:54:36.422Z,100914.34
2022-11-05T22:57:05.462Z,100918.63
2022-11-05T22:59:31.912Z,100900.41
2022-11-05T23:01:58.613Z,100892.66
2022-11-05T23:04:25.093Z,100904.81
2022-11-05T23:06:51.642Z,100904.81
2022-11-05T23:09:22.672Z,100902.22
2022-11-05T23:11:51.646Z,100891.84
2022-11-05T23:14:18.214Z,100879.69
2022-11-05T23:16:44.916Z,100881.44
2022-11-05T23:19:12.026Z,100886.66
2022-11-05T23:21:38.463Z,100878.84
2022-11-05T23:24:05.393Z,100871.03
2022-11-05T23:26:36.819Z,100880.53
2022-11-05T23:29:03.351Z,100871.03
2022-11-05T23:31:30.020Z,100874.44
2022-11-05T23:33:56.776Z,100864.06
2022-11-05T23:36:23.209Z,100877.09
2022-11-05T23:38:49.652Z,100884.88
2022-11-05T23:41:16.121Z,100883.13
2022-11-05T23:43:42.590Z,100884.06
2022-11-05T23:46:09.049Z,100879.66
2022-11-05T23:48:37.372Z,100867.50
2022-11-05T23:51:09.767Z,100867.50
2022-11-05T23:53:38.365Z,100877.97
2022-11-05T23:56:08.200Z,100871.06
2022-11-05T23:58:36.212Z,100865.84
